sensor_id;sensor_type;location;lat;lon;timestamp;P1;durP1;ratioP1;P2;durP2;ratioP2
5805;SDS011;2929;50.810;8.342;2023-04-24T00:02:26;1.90;;;1.07;;
5805;SDS011;2929;50.810;8.342;2023-04-24T00:04:53;3.10;;;1.10;;
5805;SDS011;2929;50.810;8.342;2023-04-24T00:07:20;1.00;;;1.00;;
5805;SDS011;2929;50.810;8.342;2023-04-24T00:09:47;4.63;;;1.20;;
5805;SDS011;2929;50.810;8.342;2023-04-24T00:12:17;3.33;;;1.20;;
5805;SDS011;2929;50.810;8.342;2023-04-24T00:14:44;2.90;;;1.20;;
5805;SDS011;2929;50.810;8.342;2023-04-24T00:17:11;3.27;;;1.10;;
5805;SDS011;2929;50.810;8.342;2023-04-24T00:19:38;1.13;;;0.83;;
5805;SDS011;2929;50.810;8.342;2023-04-24T00:22:05;2.57;;;1.20;;
5805;SDS011;2929;50.810;8.342;2023-04-24T00:24:32;2.50;;;1.40;;
5805;SDS011;2929;50.810;8.342;2023-04-24T00:26:59;2.80;;;1.47;;
5805;SDS011;2929;50.810;8.342;2023-04-24T00:29:27;2.70;;;1.30;;
5805;SDS011;2929;50.810;8.342;2023-04-24T00:31:54;1.67;;;1.20;;
5805;SDS011;2929;50.810;8.342;2023-04-24T00:34:21;2.63;;;1.40;;
5805;SDS011;2929;50.810;8.342;2023-04-24T00:36:48;3.00;;;1.00;;
5805;SDS011;2929;50.810;8.342;2023-04-24T00:39:17;2.47;;;1.60;;
5805;SDS011;2929;50.810;8.342;2023-04-24T00:41:44;1.70;;;1.30;;
5805;SDS011;2929;50.810;8.342;2023-04-24T00:44:12;1.70;;;1.53;;
5805;SDS011;2929;50.810;8.342;2023-04-24T00:46:41;4.30;;;1.80;;
5805;SDS011;2929;50.810;8.342;2023-04-24T00:49:08;3.13;;;1.30;;
5805;SDS011;2929;50.810;8.342;2023-04-24T00:51:36;1.40;;;1.30;;
5805;SDS011;2929;50.810;8.342;2023-04-24T00:54:03;5.37;;;1.60;;
5805;SDS011;2929;50.810;8.342;2023-04-24T00:56:30;5.53;;;1.20;;
5805;SDS011;2929;50.810;8.342;2023-04-24T00:58:57;2.07;;;1.20;;
5805;SDS011;2929;50.810;8.342;2023-04-24T01:01:25;1.60;;;1.23;;
5805;SDS011;2929;50.810;8.342;2023-04-24T01:03:54;1.70;;;1.60;;
5805;SDS011;2929;50.810;8.342;2023-04-24T01:06:22;4.60;;;2.57;;
5805;SDS011;2929;50.810;8.342;2023-04-24T01:08:53;2.10;;;1.60;;
5805;SDS011;2929;50.810;8.342;2023-04-24T01:11:21;1.37;;;1.27;;
5805;SDS011;2929;50.810;8.342;2023-04-24T01:13:49;5.33;;;1.40;;
5805;SDS011;2929;50.810;8.342;2023-04-24T01:16:16;1.43;;;1.20;;
5805;SDS011;2929;50.810;8.342;2023-04-24T01:18:45;4.00;;;1.50;;
5805;SDS011;2929;50.810;8.342;2023-04-24T01:21:14;2.13;;;1.77;;
5805;SDS011;2929;50.810;8.342;2023-04-24T01:23:44;3.10;;;1.70;;
5805;SDS011;2929;50.810;8.342;2023-04-24T01:26:11;1.53;;;1.33;;
5805;SDS011;2929;50.810;8.342;2023-04-24T01:28:39;1.30;;;1.23;;
5805;SDS011;2929;50.810;8.342;2023-04-24T01:31:06;2.57;;;2.00;;
5805;SDS011;2929;50.810;8.342;2023-04-24T01:33:34;2.50;;;1.83;;
5805;SDS011;2929;50.810;8.342;2023-04-24T01:36:01;2.90;;;1.90;;
5805;SDS011;2929;50.810;8.342;2023-04-24T01:38:28;1.50;;;1.40;;
5805;SDS011;2929;50.810;8.342;2023-04-24T01:40:57;2.40;;;1.40;;
5805;SDS011;2929;50.810;8.342;2023-04-24T01:43:24;1.97;;;1.47;;
5805;SDS011;2929;50.810;8.342;2023-04-24T01:45:51;2.00;;;1.40;;
5805;SDS011;2929;50.810;8.342;2023-04-24T01:48:18;3.10;;;2.20;;
5805;SDS011;2929;50.810;8.342;2023-04-24T01:50:46;2.70;;;1.40;;
5805;SDS011;2929;50.810;8.342;2023-04-24T01:53:14;4.53;;;1.47;;
5805;SDS011;2929;50.810;8.342;2023-04-24T01:55:41;4.10;;;1.40;;
5805;SDS011;2929;50.810;8.342;2023-04-24T01:58:10;2.10;;;1.67;;
5805;SDS011;2929;50.810;8.342;2023-04-24T02:00:37;1.50;;;1.40;;
5805;SDS011;2929;50.810;8.342;2023-04-24T02:03:04;2.50;;;1.27;;
5805;SDS011;2929;50.810;8.342;2023-04-24T02:05:31;2.13;;;1.80;;
5805;SDS011;2929;50.810;8.342;2023-04-24T02:07:58;5.30;;;3.00;;
5805;SDS011;2929;50.810;8.342;2023-04-24T02:10:25;2.87;;;1.70;;
5805;SDS011;2929;50.810;8.342;2023-04-24T02:12:52;4.20;;;1.40;;
5805;SDS011;2929;50.810;8.342;2023-04-24T02:15:24;3.70;;;1.67;;
5805;SDS011;2929;50.810;8.342;2023-04-24T02:17:51;2.40;;;1.90;;
5805;SDS011;2929;50.810;8.342;2023-04-24T02:20:18;2.53;;;1.30;;
5805;SDS011;2929;50.810;8.342;2023-04-24T02:22:45;1.43;;;1.33;;
5805;SDS011;2929;50.810;8.342;2023-04-24T02:25:12;1.83;;;1.43;;
5805;SDS011;2929;50.810;8.342;2023-04-24T02:27:39;1.37;;;1.27;;
5805;SDS011;2929;50.810;8.342;2023-04-24T02:30:07;3.60;;;1.57;;
5805;SDS011;2929;50.810;8.342;2023-04-24T02:32:37;2.30;;;1.53;;
5805;SDS011;2929;50.810;8.342;2023-04-24T02:35:04;2.50;;;1.67;;
5805;SDS011;2929;50.810;8.342;2023-04-24T02:37:32;3.13;;;1.63;;
5805;SDS011;2929;50.810;8.342;2023-04-24T02:39:59;1.53;;;1.40;;
5805;SDS011;2929;50.810;8.342;2023-04-24T02:42:26;1.40;;;1.30;;
5805;SDS011;2929;50.810;8.342;2023-04-24T02:44:53;6.83;;;1.70;;
5805;SDS011;2929;50.810;8.342;2023-04-24T02:47:20;1.73;;;1.60;;
5805;SDS011;2929;50.810;8.342;2023-04-24T02:49:49;2.30;;;2.10;;
5805;SDS011;2929;50.810;8.342;2023-04-24T02:52:16;4.13;;;1.70;;
5805;SDS011;2929;50.810;8.342;2023-04-24T02:54:43;1.77;;;1.53;;
5805;SDS011;2929;50.810;8.342;2023-04-24T02:57:10;1.50;;;1.40;;
5805;SDS011;2929;50.810;8.342;2023-04-24T02:59:40;2.90;;;1.93;;
5805;SDS011;2929;50.810;8.342;2023-04-24T03:02:08;1.53;;;1.40;;
5805;SDS011;2929;50.810;8.342;2023-04-24T03:04:35;3.07;;;1.40;;
5805;SDS011;2929;50.810;8.342;2023-04-24T03:07:03;2.23;;;1.27;;
5805;SDS011;2929;50.810;8.342;2023-04-24T03:09:30;1.50;;;1.40;;
5805;SDS011;2929;50.810;8.342;2023-04-24T03:11:57;1.70;;;1.60;;
5805;SDS011;2929;50.810;8.342;2023-04-24T03:14:25;5.37;;;1.67;;
5805;SDS011;2929;50.810;8.342;2023-04-24T03:16:52;1.93;;;1.73;;
5805;SDS011;2929;50.810;8.342;2023-04-24T03:19:19;4.07;;;1.50;;
5805;SDS011;2929;50.810;8.342;2023-04-24T03:22:01;1.73;;;1.63;;
5805;SDS011;2929;50.810;8.342;2023-04-24T03:24:30;1.50;;;1.40;;
5805;SDS011;2929;50.810;8.342;2023-04-24T03:26:57;1.43;;;1.30;;
5805;SDS011;2929;50.810;8.342;2023-04-24T03:29:45;2.63;;;1.57;;
5805;SDS011;2929;50.810;8.342;2023-04-24T03:32:13;1.30;;;1.23;;
5805;SDS011;2929;50.810;8.342;2023-04-24T03:34:41;1.63;;;1.50;;
5805;SDS011;2929;50.810;8.342;2023-04-24T03:37:10;6.03;;;1.50;;
5805;SDS011;2929;50.810;8.342;2023-04-24T03:39:42;1.30;;;1.17;;
5805;SDS011;2929;50.810;8.342;2023-04-24T03:42:09;1.53;;;1.43;;
5805;SDS011;2929;50.810;8.342;2023-04-24T03:44:47;1.20;;;1.10;;
5805;SDS011;2929;50.810;8.342;2023-04-24T03:47:15;1.40;;;1.20;;
5805;SDS011;2929;50.810;8.342;2023-04-24T03:49:42;6.90;;;1.60;;
5805;SDS011;2929;50.810;8.342;2023-04-24T03:52:09;1.53;;;1.43;;
5805;SDS011;2929;50.810;8.342;2023-04-24T03:54:36;4.33;;;1.50;;
5805;SDS011;2929;50.810;8.342;2023-04-24T03:57:05;2.50;;;1.80;;
5805;SDS011;2929;50.810;8.342;2023-04-24T03:59:35;2.10;;;1.90;;
5805;SDS011;2929;50.810;8.342;2023-04-24T04:02:14;4.60;;;1.70;;
5805;SDS011;2929;50.810;8.342;2023-04-24T04:04:41;1.77;;;1.60;;
5805;SDS011;2929;50.810;8.342;2023-04-24T04:07:09;1.50;;;1.40;;
5805;SDS011;2929;50.810;8.342;2023-04-24T04:09:36;1.67;;;1.57;;
5805;SDS011;2929;50.810;8.342;2023-04-24T04:12:05;2.57;;;1.67;;
5805;SDS011;2929;50.810;8.342;2023-04-24T04:14:33;3.30;;;2.10;;
5805;SDS011;2929;50.810;8.342;2023-04-24T04:17:01;2.20;;;2.00;;
5805;SDS011;2929;50.810;8.342;2023-04-24T04:19:28;3.03;;;1.90;;
5805;SDS011;2929;50.810;8.342;2023-04-24T04:21:56;1.90;;;1.80;;
5805;SDS011;2929;50.810;8.342;2023-04-24T04:24:40;2.07;;;1.97;;
5805;SDS011;2929;50.810;8.342;2023-04-24T04:27:10;2.07;;;1.90;;
5805;SDS011;2929;50.810;8.342;2023-04-24T04:29:54;5.53;;;2.20;;
5805;SDS011;2929;50.810;8.342;2023-04-24T04:32:22;2.17;;;1.97;;
5805;SDS011;2929;50.810;8.342;2023-04-24T04:34:49;4.43;;;2.23;;
5805;SDS011;2929;50.810;8.342;2023-04-24T04:37:18;4.27;;;2.20;;
5805;SDS011;2929;50.810;8.342;2023-04-24T04:39:51;2.50;;;2.30;;
5805;SDS011;2929;50.810;8.342;2023-04-24T04:42:25;4.50;;;2.53;;
5805;SDS011;2929;50.810;8.342;2023-04-24T04:44:53;2.50;;;2.30;;
5805;SDS011;2929;50.810;8.342;2023-04-24T04:47:27;2.30;;;2.10;;
5805;SDS011;2929;50.810;8.342;2023-04-24T04:49:58;5.53;;;2.70;;
5805;SDS011;2929;50.810;8.342;2023-04-24T04:52:26;3.20;;;2.83;;
5805;SDS011;2929;50.810;8.342;2023-04-24T04:55:10;3.10;;;2.90;;
5805;SDS011;2929;50.810;8.342;2023-04-24T04:58:19;3.50;;;3.20;;
5805;SDS011;2929;50.810;8.342;2023-04-24T05:00:50;4.80;;;3.20;;
5805;SDS011;2929;50.810;8.342;2023-04-24T05:03:26;4.80;;;3.60;;
5805;SDS011;2929;50.810;8.342;2023-04-24T05:05:59;5.73;;;4.57;;
5805;SDS011;2929;50.810;8.342;2023-04-24T05:08:27;4.90;;;3.53;;
5805;SDS011;2929;50.810;8.342;2023-04-24T05:10:54;5.37;;;3.70;;
5805;SDS011;2929;50.810;8.342;2023-04-24T05:13:24;6.77;;;4.47;;
5805;SDS011;2929;50.810;8.342;2023-04-24T05:15:52;7.87;;;4.13;;
5805;SDS011;2929;50.810;8.342;2023-04-24T05:18:19;3.87;;;3.37;;
5805;SDS011;2929;50.810;8.342;2023-04-24T05:20:47;4.27;;;3.60;;
5805;SDS011;2929;50.810;8.342;2023-04-24T05:23:14;4.77;;;3.70;;
5805;SDS011;2929;50.810;8.342;2023-04-24T05:25:43;9.00;;;3.50;;
5805;SDS011;2929;50.810;8.342;2023-04-24T05:28:13;4.70;;;3.67;;
5805;SDS011;2929;50.810;8.342;2023-04-24T05:30:42;8.27;;;4.40;;
5805;SDS011;2929;50.810;8.342;2023-04-24T05:33:11;8.43;;;4.70;;
5805;SDS011;2929;50.810;8.342;2023-04-24T05:35:39;8.63;;;3.23;;
5805;SDS011;2929;50.810;8.342;2023-04-24T05:38:11;5.10;;;4.20;;
5805;SDS011;2929;50.810;8.342;2023-04-24T05:40:38;8.67;;;4.50;;
5805;SDS011;2929;50.810;8.342;2023-04-24T05:43:06;5.50;;;4.00;;
5805;SDS011;2929;50.810;8.342;2023-04-24T05:45:33;4.67;;;4.27;;
5805;SDS011;2929;50.810;8.342;2023-04-24T05:48:02;5.80;;;4.40;;
5805;SDS011;2929;50.810;8.342;2023-04-24T05:50:29;5.87;;;3.83;;
5805;SDS011;2929;50.810;8.342;2023-04-24T05:52:57;5.10;;;4.20;;
5805;SDS011;2929;50.810;8.342;2023-04-24T05:55:28;4.50;;;4.10;;
5805;SDS011;2929;50.810;8.342;2023-04-24T05:57:56;5.83;;;4.40;;
5805;SDS011;2929;50.810;8.342;2023-04-24T06:00:25;8.27;;;3.70;;
5805;SDS011;2929;50.810;8.342;2023-04-24T06:02:59;4.30;;;3.63;;
5805;SDS011;2929;50.810;8.342;2023-04-24T06:05:30;6.47;;;4.03;;
5805;SDS011;2929;50.810;8.342;2023-04-24T06:07:57;9.97;;;4.70;;
5805;SDS011;2929;50.810;8.342;2023-04-24T06:10:29;5.10;;;4.10;;
5805;SDS011;2929;50.810;8.342;2023-04-24T06:12:57;6.30;;;4.13;;
5805;SDS011;2929;50.810;8.342;2023-04-24T06:15:27;5.40;;;3.77;;
5805;SDS011;2929;50.810;8.342;2023-04-24T06:17:58;7.07;;;4.00;;
5805;SDS011;2929;50.810;8.342;2023-04-24T06:20:26;5.53;;;4.13;;
5805;SDS011;2929;50.810;8.342;2023-04-24T06:22:54;4.50;;;3.97;;
5805;SDS011;2929;50.810;8.342;2023-04-24T06:25:21;7.80;;;5.33;;
5805;SDS011;2929;50.810;8.342;2023-04-24T06:27:50;5.97;;;3.77;;
5805;SDS011;2929;50.810;8.342;2023-04-24T06:30:17;4.67;;;4.00;;
5805;SDS011;2929;50.810;8.342;2023-04-24T06:32:44;6.73;;;4.10;;
5805;SDS011;2929;50.810;8.342;2023-04-24T06:35:11;5.93;;;4.17;;
5805;SDS011;2929;50.810;8.342;2023-04-24T06:37:39;6.00;;;4.60;;
5805;SDS011;2929;50.810;8.342;2023-04-24T06:40:09;6.87;;;4.30;;
5805;SDS011;2929;50.810;8.342;2023-04-24T06:42:36;5.10;;;4.00;;
5805;SDS011;2929;50.810;8.342;2023-04-24T06:45:07;5.93;;;3.40;;
5805;SDS011;2929;50.810;8.342;2023-04-24T06:47:35;6.70;;;4.53;;
5805;SDS011;2929;50.810;8.342;2023-04-24T06:50:03;5.77;;;4.60;;
5805;SDS011;2929;50.810;8.342;2023-04-24T06:52:31;6.07;;;4.30;;
5805;SDS011;2929;50.810;8.342;2023-04-24T06:54:59;7.00;;;4.13;;
5805;SDS011;2929;50.810;8.342;2023-04-24T06:57:28;5.33;;;4.20;;
5805;SDS011;2929;50.810;8.342;2023-04-24T06:59:55;5.53;;;4.30;;
5805;SDS011;2929;50.810;8.342;2023-04-24T07:02:22;10.50;;;4.80;;
5805;SDS011;2929;50.810;8.342;2023-04-24T07:04:50;4.87;;;4.17;;
5805;SDS011;2929;50.810;8.342;2023-04-24T07:07:18;7.17;;;4.53;;
5805;SDS011;2929;50.810;8.342;2023-04-24T07:09:45;7.53;;;4.20;;
5805;SDS011;2929;50.810;8.342;2023-04-24T07:12:12;6.77;;;4.70;;
5805;SDS011;2929;50.810;8.342;2023-04-24T07:14:40;6.57;;;4.07;;
5805;SDS011;2929;50.810;8.342;2023-04-24T07:17:08;9.00;;;5.10;;
5805;SDS011;2929;50.810;8.342;2023-04-24T07:19:35;4.90;;;4.13;;
5805;SDS011;2929;50.810;8.342;2023-04-24T07:22:02;11.20;;;7.10;;
5805;SDS011;2929;50.810;8.342;2023-04-24T07:24:29;7.37;;;5.20;;
5805;SDS011;2929;50.810;8.342;2023-04-24T07:26:57;7.70;;;5.17;;
5805;SDS011;2929;50.810;8.342;2023-04-24T07:29:26;5.33;;;4.47;;
5805;SDS011;2929;50.810;8.342;2023-04-24T07:31:54;8.20;;;5.40;;
5805;SDS011;2929;50.810;8.342;2023-04-24T07:34:21;5.03;;;4.33;;
5805;SDS011;2929;50.810;8.342;2023-04-24T07:36:49;7.80;;;4.70;;
5805;SDS011;2929;50.810;8.342;2023-04-24T07:39:17;9.00;;;5.07;;
5805;SDS011;2929;50.810;8.342;2023-04-24T07:41:44;8.70;;;4.73;;
5805;SDS011;2929;50.810;8.342;2023-04-24T07:44:12;7.40;;;5.20;;
5805;SDS011;2929;50.810;8.342;2023-04-24T07:46:39;4.73;;;4.23;;
5805;SDS011;2929;50.810;8.342;2023-04-24T07:49:08;6.93;;;4.90;;
5805;SDS011;2929;50.810;8.342;2023-04-24T07:51:36;7.83;;;5.50;;
5805;SDS011;2929;50.810;8.342;2023-04-24T07:54:04;5.97;;;4.77;;
5805;SDS011;2929;50.810;8.342;2023-04-24T07:56:32;5.23;;;4.70;;
5805;SDS011;2929;50.810;8.342;2023-04-24T07:58:59;6.30;;;4.90;;
5805;SDS011;2929;50.810;8.342;2023-04-24T08:01:26;6.10;;;4.97;;
5805;SDS011;2929;50.810;8.342;2023-04-24T08:03:53;8.60;;;4.53;;
5805;SDS011;2929;50.810;8.342;2023-04-24T08:06:22;6.03;;;4.70;;
5805;SDS011;2929;50.810;8.342;2023-04-24T08:08:49;13.43;;;4.43;;
5805;SDS011;2929;50.810;8.342;2023-04-24T08:11:16;5.37;;;4.53;;
5805;SDS011;2929;50.810;8.342;2023-04-24T08:13:43;5.80;;;4.40;;
5805;SDS011;2929;50.810;8.342;2023-04-24T08:16:10;6.83;;;3.90;;
5805;SDS011;2929;50.810;8.342;2023-04-24T08:18:38;6.80;;;4.53;;
5805;SDS011;2929;50.810;8.342;2023-04-24T08:21:05;5.17;;;4.50;;
5805;SDS011;2929;50.810;8.342;2023-04-24T08:23:33;7.53;;;4.40;;
5805;SDS011;2929;50.810;8.342;2023-04-24T08:26:01;11.03;;;4.73;;
5805;SDS011;2929;50.810;8.342;2023-04-24T08:28:28;8.03;;;4.43;;
5805;SDS011;2929;50.810;8.342;2023-04-24T08:30:55;7.20;;;4.47;;
5805;SDS011;2929;50.810;8.342;2023-04-24T08:33:22;4.83;;;4.10;;
5805;SDS011;2929;50.810;8.342;2023-04-24T08:35:50;7.27;;;4.47;;
5805;SDS011;2929;50.810;8.342;2023-04-24T08:38:17;6.20;;;4.10;;
5805;SDS011;2929;50.810;8.342;2023-04-24T08:40:46;6.43;;;3.90;;
5805;SDS011;2929;50.810;8.342;2023-04-24T08:43:14;10.87;;;4.83;;
5805;SDS011;2929;50.810;8.342;2023-04-24T08:45:44;7.10;;;3.77;;
5805;SDS011;2929;50.810;8.342;2023-04-24T08:48:11;3.20;;;2.90;;
5805;SDS011;2929;50.810;8.342;2023-04-24T08:50:40;6.70;;;3.20;;
5805;SDS011;2929;50.810;8.342;2023-04-24T08:53:09;3.93;;;3.47;;
5805;SDS011;2929;50.810;8.342;2023-04-24T08:55:37;3.83;;;3.17;;
5805;SDS011;2929;50.810;8.342;2023-04-24T08:58:06;3.40;;;3.07;;
5805;SDS011;2929;50.810;8.342;2023-04-24T09:00:33;3.93;;;3.13;;
5805;SDS011;2929;50.810;8.342;2023-04-24T09:03:00;3.43;;;3.13;;
5805;SDS011;2929;50.810;8.342;2023-04-24T09:05:31;4.83;;;3.40;;
5805;SDS011;2929;50.810;8.342;2023-04-24T09:08:00;3.23;;;2.93;;
5805;SDS011;2929;50.810;8.342;2023-04-24T09:10:30;3.83;;;2.70;;
5805;SDS011;2929;50.810;8.342;2023-04-24T09:12:58;4.77;;;2.80;;
5805;SDS011;2929;50.810;8.342;2023-04-24T09:15:28;3.83;;;2.93;;
5805;SDS011;2929;50.810;8.342;2023-04-24T09:17:56;3.50;;;2.70;;
5805;SDS011;2929;50.810;8.342;2023-04-24T09:20:23;4.77;;;2.80;;
5805;SDS011;2929;50.810;8.342;2023-04-24T09:22:53;3.13;;;2.80;;
5805;SDS011;2929;50.810;8.342;2023-04-24T09:25:21;3.60;;;3.07;;
5805;SDS011;2929;50.810;8.342;2023-04-24T09:27:48;4.30;;;3.03;;
5805;SDS011;2929;50.810;8.342;2023-04-24T09:30:15;4.00;;;2.97;;
5805;SDS011;2929;50.810;8.342;2023-04-24T09:32:50;6.10;;;3.27;;
5805;SDS011;2929;50.810;8.342;2023-04-24T09:35:37;4.17;;;3.13;;
5805;SDS011;2929;50.810;8.342;2023-04-24T09:38:08;4.33;;;3.80;;
5805;SDS011;2929;50.810;8.342;2023-04-24T09:40:35;3.73;;;2.97;;
5805;SDS011;2929;50.810;8.342;2023-04-24T09:43:03;2.10;;;1.90;;
5805;SDS011;2929;50.810;8.342;2023-04-24T09:45:35;2.40;;;2.10;;
5805;SDS011;2929;50.810;8.342;2023-04-24T09:48:04;2.03;;;1.83;;
5805;SDS011;2929;50.810;8.342;2023-04-24T09:50:33;2.50;;;1.20;;
5805;SDS011;2929;50.810;8.342;2023-04-24T09:53:01;2.13;;;1.80;;
5805;SDS011;2929;50.810;8.342;2023-04-24T09:55:29;1.40;;;0.93;;
5805;SDS011;2929;50.810;8.342;2023-04-24T09:57:57;0.97;;;0.80;;
5805;SDS011;2929;50.810;8.342;2023-04-24T10:00:26;0.80;;;0.80;;
5805;SDS011;2929;50.810;8.342;2023-04-24T10:02:57;0.83;;;0.83;;
5805;SDS011;2929;50.810;8.342;2023-04-24T10:05:30;1.07;;;1.03;;
5805;SDS011;2929;50.810;8.342;2023-04-24T10:08:00;1.17;;;1.07;;
5805;SDS011;2929;50.810;8.342;2023-04-24T10:10:29;1.37;;;1.13;;
5805;SDS011;2929;50.810;8.342;2023-04-24T10:12:57;0.70;;;0.70;;
5805;SDS011;2929;50.810;8.342;2023-04-24T10:15:25;0.60;;;0.60;;
5805;SDS011;2929;50.810;8.342;2023-04-24T10:17:53;0.83;;;0.70;;
5805;SDS011;2929;50.810;8.342;2023-04-24T10:20:20;0.67;;;0.67;;
5805;SDS011;2929;50.810;8.342;2023-04-24T10:22:50;0.80;;;0.60;;
5805;SDS011;2929;50.810;8.342;2023-04-24T10:25:19;0.70;;;0.70;;
5805;SDS011;2929;50.810;8.342;2023-04-24T10:27:48;0.40;;;0.40;;
5805;SDS011;2929;50.810;8.342;2023-04-24T10:30:16;0.70;;;0.60;;
5805;SDS011;2929;50.810;8.342;2023-04-24T10:32:44;0.50;;;0.50;;
5805;SDS011;2929;50.810;8.342;2023-04-24T10:35:11;0.50;;;0.50;;
5805;SDS011;2929;50.810;8.342;2023-04-24T10:37:40;3.03;;;0.90;;
5805;SDS011;2929;50.810;8.342;2023-04-24T10:40:17;0.63;;;0.57;;
5805;SDS011;2929;50.810;8.342;2023-04-24T10:42:46;0.90;;;0.70;;
5805;SDS011;2929;50.810;8.342;2023-04-24T10:45:17;0.57;;;0.57;;
5805;SDS011;2929;50.810;8.342;2023-04-24T10:48:01;1.17;;;0.60;;
5805;SDS011;2929;50.810;8.342;2023-04-24T10:50:30;0.70;;;0.70;;
5805;SDS011;2929;50.810;8.342;2023-04-24T10:53:12;0.83;;;0.83;;
5805;SDS011;2929;50.810;8.342;2023-04-24T10:55:46;0.70;;;0.70;;
5805;SDS011;2929;50.810;8.342;2023-04-24T10:58:14;0.70;;;0.70;;
5805;SDS011;2929;50.810;8.342;2023-04-24T11:00:43;0.80;;;0.80;;
5805;SDS011;2929;50.810;8.342;2023-04-24T11:03:24;0.90;;;0.90;;
5805;SDS011;2929;50.810;8.342;2023-04-24T11:05:56;3.50;;;0.80;;
5805;SDS011;2929;50.810;8.342;2023-04-24T11:08:26;1.30;;;1.20;;
5805;SDS011;2929;50.810;8.342;2023-04-24T11:10:56;1.33;;;0.97;;
5805;SDS011;2929;50.810;8.342;2023-04-24T11:13:25;1.00;;;1.00;;
5805;SDS011;2929;50.810;8.342;2023-04-24T11:19:40;1.73;;;1.10;;
5805;SDS011;2929;50.810;8.342;2023-04-24T11:22:14;2.93;;;0.90;;
5805;SDS011;2929;50.810;8.342;2023-04-24T11:24:48;1.30;;;1.30;;
5805;SDS011;2929;50.810;8.342;2023-04-24T11:27:23;1.10;;;1.10;;
5805;SDS011;2929;50.810;8.342;2023-04-24T11:29:58;1.43;;;1.00;;
5805;SDS011;2929;50.810;8.342;2023-04-24T11:32:27;0.90;;;0.80;;
5805;SDS011;2929;50.810;8.342;2023-04-24T11:34:55;0.83;;;0.83;;
5805;SDS011;2929;50.810;8.342;2023-04-24T11:37:25;1.57;;;1.40;;
5805;SDS011;2929;50.810;8.342;2023-04-24T11:43:43;2.07;;;1.83;;
5805;SDS011;2929;50.810;8.342;2023-04-24T11:46:10;1.47;;;1.37;;
5805;SDS011;2929;50.810;8.342;2023-04-24T11:48:38;2.27;;;2.07;;
5805;SDS011;2929;50.810;8.342;2023-04-24T11:51:05;2.87;;;2.03;;
5805;SDS011;2929;50.810;8.342;2023-04-24T11:53:32;3.80;;;2.50;;
5805;SDS011;2929;50.810;8.342;2023-04-24T11:56:02;2.23;;;2.03;;
5805;SDS011;2929;50.810;8.342;2023-04-24T11:58:34;2.30;;;2.10;;
5805;SDS011;2929;50.810;8.342;2023-04-24T12:01:03;2.60;;;1.90;;
5805;SDS011;2929;50.810;8.342;2023-04-24T12:03:31;3.30;;;2.50;;
5805;SDS011;2929;50.810;8.342;2023-04-24T12:06:04;2.50;;;2.07;;
5805;SDS011;2929;50.810;8.342;2023-04-24T12:08:32;2.70;;;2.47;;
5805;SDS011;2929;50.810;8.342;2023-04-24T12:11:00;2.90;;;2.60;;
5805;SDS011;2929;50.810;8.342;2023-04-24T12:13:27;3.23;;;2.70;;
5805;SDS011;2929;50.810;8.342;2023-04-24T12:15:56;4.90;;;2.73;;
5805;SDS011;2929;50.810;8.342;2023-04-24T12:18:25;2.80;;;2.00;;
5805;SDS011;2929;50.810;8.342;2023-04-24T12:20:52;3.33;;;2.43;;
5805;SDS011;2929;50.810;8.342;2023-04-24T12:23:33;4.47;;;2.80;;
5805;SDS011;2929;50.810;8.342;2023-04-24T12:26:01;8.10;;;2.93;;
5805;SDS011;2929;50.810;8.342;2023-04-24T12:28:34;4.90;;;3.67;;
5805;SDS011;2929;50.810;8.342;2023-04-24T12:31:02;6.17;;;3.10;;
5805;SDS011;2929;50.810;8.342;2023-04-24T12:33:33;4.23;;;2.67;;
5805;SDS011;2929;50.810;8.342;2023-04-24T12:36:01;4.73;;;2.10;;
5805;SDS011;2929;50.810;8.342;2023-04-24T12:38:28;5.90;;;3.00;;
5805;SDS011;2929;50.810;8.342;2023-04-24T12:41:02;5.80;;;2.90;;
5805;SDS011;2929;50.810;8.342;2023-04-24T12:43:31;2.90;;;2.70;;
5805;SDS011;2929;50.810;8.342;2023-04-24T12:45:58;4.83;;;2.30;;
5805;SDS011;2929;50.810;8.342;2023-04-24T12:48:25;4.27;;;3.13;;
5805;SDS011;2929;50.810;8.342;2023-04-24T12:50:54;4.70;;;3.00;;
5805;SDS011;2929;50.810;8.342;2023-04-24T12:53:21;6.20;;;3.10;;
5805;SDS011;2929;50.810;8.342;2023-04-24T12:55:51;3.17;;;2.70;;
5805;SDS011;2929;50.810;8.342;2023-04-24T12:58:19;17.67;;;2.87;;
5805;SDS011;2929;50.810;8.342;2023-04-24T13:00:46;3.50;;;2.10;;
5805;SDS011;2929;50.810;8.342;2023-04-24T13:03:14;4.80;;;2.97;;
5805;SDS011;2929;50.810;8.342;2023-04-24T13:05:41;4.27;;;2.50;;
5805;SDS011;2929;50.810;8.342;2023-04-24T13:08:10;2.50;;;2.17;;
5805;SDS011;2929;50.810;8.342;2023-04-24T13:10:38;6.77;;;2.90;;
5805;SDS011;2929;50.810;8.342;2023-04-24T13:13:05;4.93;;;2.47;;
5805;SDS011;2929;50.810;8.342;2023-04-24T13:15:33;3.13;;;2.60;;
5805;SDS011;2929;50.810;8.342;2023-04-24T13:18:00;2.30;;;2.10;;
5805;SDS011;2929;50.810;8.342;2023-04-24T13:20:27;2.57;;;2.20;;
5805;SDS011;2929;50.810;8.342;2023-04-24T13:22:54;3.63;;;2.23;;
5805;SDS011;2929;50.810;8.342;2023-04-24T13:25:26;4.13;;;2.33;;
5805;SDS011;2929;50.810;8.342;2023-04-24T13:27:59;6.63;;;3.30;;
5805;SDS011;2929;50.810;8.342;2023-04-24T13:30:28;4.60;;;3.17;;
5805;SDS011;2929;50.810;8.342;2023-04-24T13:32:55;14.03;;;3.07;;
5805;SDS011;2929;50.810;8.342;2023-04-24T13:35:22;3.17;;;2.30;;
5805;SDS011;2929;50.810;8.342;2023-04-24T13:37:50;4.80;;;2.60;;
5805;SDS011;2929;50.810;8.342;2023-04-24T13:40:17;6.90;;;3.00;;
5805;SDS011;2929;50.810;8.342;2023-04-24T13:42:46;3.80;;;2.60;;
5805;SDS011;2929;50.810;8.342;2023-04-24T13:45:13;9.73;;;3.37;;
5805;SDS011;2929;50.810;8.342;2023-04-24T13:47:52;6.30;;;3.00;;
5805;SDS011;2929;50.810;8.342;2023-04-24T13:50:21;4.77;;;3.10;;
5805;SDS011;2929;50.810;8.342;2023-04-24T13:52:48;4.07;;;2.67;;
5805;SDS011;2929;50.810;8.342;2023-04-24T13:55:15;4.73;;;2.70;;
5805;SDS011;2929;50.810;8.342;2023-04-24T13:57:43;8.60;;;3.70;;
5805;SDS011;2929;50.810;8.342;2023-04-24T14:00:12;4.27;;;2.80;;
5805;SDS011;2929;50.810;8.342;2023-04-24T14:02:40;6.23;;;3.10;;
5805;SDS011;2929;50.810;8.342;2023-04-24T14:05:07;4.10;;;3.00;;
5805;SDS011;2929;50.810;8.342;2023-04-24T14:07:37;8.13;;;3.90;;
5805;SDS011;2929;50.810;8.342;2023-04-24T14:10:04;10.63;;;3.53;;
5805;SDS011;2929;50.810;8.342;2023-04-24T14:12:32;6.60;;;4.27;;
5805;SDS011;2929;50.810;8.342;2023-04-24T14:15:00;7.77;;;4.50;;
5805;SDS011;2929;50.810;8.342;2023-04-24T14:17:29;5.10;;;3.70;;
5805;SDS011;2929;50.810;8.342;2023-04-24T14:23:43;5.33;;;2.07;;
5805;SDS011;2929;50.810;8.342;2023-04-24T14:26:10;3.10;;;1.93;;
5805;SDS011;2929;50.810;8.342;2023-04-24T14:32:27;4.47;;;2.70;;
5805;SDS011;2929;50.810;8.342;2023-04-24T14:34:54;3.10;;;2.60;;
5805;SDS011;2929;50.810;8.342;2023-04-24T14:41:08;7.90;;;2.93;;
5805;SDS011;2929;50.810;8.342;2023-04-24T14:43:37;4.27;;;2.90;;
5805;SDS011;2929;50.810;8.342;2023-04-24T14:46:04;6.37;;;2.90;;
5805;SDS011;2929;50.810;8.342;2023-04-24T14:48:33;5.80;;;3.50;;
5805;SDS011;2929;50.810;8.342;2023-04-24T14:51:00;9.93;;;3.40;;
5805;SDS011;2929;50.810;8.342;2023-04-24T14:53:27;6.40;;;4.13;;
5805;SDS011;2929;50.810;8.342;2023-04-24T14:59:42;11.27;;;4.30;;
5805;SDS011;2929;50.810;8.342;2023-04-24T15:02:10;6.37;;;4.50;;
5805;SDS011;2929;50.810;8.342;2023-04-24T15:04:38;12.87;;;6.60;;
5805;SDS011;2929;50.810;8.342;2023-04-24T15:07:05;7.07;;;5.07;;
5805;SDS011;2929;50.810;8.342;2023-04-24T15:09:32;8.37;;;5.43;;
5805;SDS011;2929;50.810;8.342;2023-04-24T15:11:59;15.20;;;6.60;;
5805;SDS011;2929;50.810;8.342;2023-04-24T15:14:26;12.63;;;5.67;;
5805;SDS011;2929;50.810;8.342;2023-04-24T15:16:53;11.00;;;6.13;;
5805;SDS011;2929;50.810;8.342;2023-04-24T15:19:20;10.07;;;5.90;;
5805;SDS011;2929;50.810;8.342;2023-04-24T15:21:49;14.57;;;6.70;;
5805;SDS011;2929;50.810;8.342;2023-04-24T15:24:17;15.90;;;8.40;;
5805;SDS011;2929;50.810;8.342;2023-04-24T15:26:44;13.43;;;6.93;;
5805;SDS011;2929;50.810;8.342;2023-04-24T15:29:11;12.90;;;6.50;;
5805;SDS011;2929;50.810;8.342;2023-04-24T15:31:38;10.23;;;6.20;;
5805;SDS011;2929;50.810;8.342;2023-04-24T15:34:05;12.83;;;8.47;;
5805;SDS011;2929;50.810;8.342;2023-04-24T15:36:33;13.50;;;6.97;;
5805;SDS011;2929;50.810;8.342;2023-04-24T15:39:02;10.33;;;6.37;;
5805;SDS011;2929;50.810;8.342;2023-04-24T15:41:29;13.87;;;7.43;;
5805;SDS011;2929;50.810;8.342;2023-04-24T15:43:56;13.03;;;6.20;;
5805;SDS011;2929;50.810;8.342;2023-04-24T15:46:23;10.33;;;5.57;;
5805;SDS011;2929;50.810;8.342;2023-04-24T15:48:51;10.67;;;6.00;;